ADDS METAR Data INFO
IDs: Format: Raw Decoded Include TAF

Data at: 0853 UTC 22 Feb 2018

KSYM 220835Z AUTO VRB06G14KT 7SM -RA BKN005 OVC011 08/07 A3033 RMK AO2
KSYM 220815Z AUTO VRB06G14KT 4SM -RA OVC006 08/07 A3036 RMK AO2
KSYM 220755Z AUTO 04004G14KT 7SM -RA OVC006 08/07 A3034 RMK AO2
KSYM 220735Z AUTO 06007KT 9SM -RA OVC006 08/07 A3034 RMK AO2
KSYM 220715Z AUTO 07008G13KT 040V100 10SM BKN009 BKN013 OVC026 09/08 A3034 RMK AO2
KSYM 220655Z AUTO 06006G18KT 10SM -RA FEW004 BKN009 OVC026 09/08 A3036 RMK AO2
KSYM 220635Z AUTO VRB05KT 1 1/4SM -RA OVC005 09/08 A3038 RMK AO2
KSYM 220615Z AUTO 04007G13KT 360V080 3/4SM +RA OVC005 09/08 A3037 RMK AO2
KSYM 220555Z AUTO 05006G12KT 1 3/4SM +RA OVC006 09/08 A3037 RMK AO2
KSYM 220535Z AUTO 06006KT 6SM -RA OVC008 09/08 A3038 RMK AO2
KSYM 220515Z AUTO 07007KT 3SM -RA OVC007 09/08 A3039 RMK AO2
KSYM 220455Z AUTO 05005G11KT 5SM -RA OVC007 09/08 A3042 RMK AO2
KSYM 220435Z AUTO 08005KT 10SM OVC007 09/08 A3041 RMK AO2
KSYM 220415Z AUTO 04006KT 10SM OVC008 10/09 A3041 RMK AO2
KSYM 220355Z AUTO VRB05KT 10SM OVC008 10/09 A3043 RMK AO2
KSYM 220035Z AUTO 34008KT 10SM OVC007 11/09 A3043 RMK AO2
KSYM 220015Z AUTO 36010KT 10SM BKN008 OVC046 11/09 A3041 RMK AO2
KSYM 212355Z AUTO 34007G12KT 10SM BKN008 OVC045 12/10 A3041 RMK AO2
KSYM 212335Z AUTO 33007KT 10SM BKN008 OVC047 12/10 A3040 RMK AO2
KSYM 212315Z AUTO 34008KT 10SM BKN008 OVC047 12/10 A3040 RMK AO2
KSYM 212255Z AUTO 34008KT 10SM BKN008 OVC050 13/11 A3039 RMK AO2
KSYM 212235Z AUTO 34011KT 10SM FEW009 OVC049 13/11 A3037 RMK AO2
KSYM 212215Z AUTO 34011G16KT 10SM BKN046 OVC055 16/11 A3037 RMK AO2
KSYM 212155Z AUTO 35006KT 10SM OVC048 16/11 A3037 RMK AO2
KSYM 212135Z AUTO 34005KT 10SM BKN049 OVC055 16/11 A3036 RMK AO2
KSYM 212115Z AUTO 34005KT 10SM BKN048 OVC055 17/11 A3036 RMK AO2
KSYM 212055Z AUTO 01004KT 10SM OVC048 17/11 A3036 RMK AO2
KSYM 212035Z AUTO 01005KT 10SM OVC049 17/11 A3035 RMK AO2
KSYM 212015Z AUTO VRB06G11KT 10SM OVC050 17/11 A3035 RMK AO2
KSYM 211955Z AUTO 01006KT 10SM BKN046 OVC055 17/11 A3036 RMK AO2
KSYM 211935Z AUTO VRB06KT 10SM OVC045 16/11 A3036 RMK AO2
KSYM 211915Z AUTO 33008KT 10SM OVC046 17/11 A3037 RMK AO2
KSYM 211855Z AUTO 34009G15KT 310V020 10SM OVC049 17/11 A3037 RMK AO2
KSYM 211835Z AUTO 35008G14KT 10SM OVC047 17/11 A3036 RMK AO2
KSYM 211815Z AUTO 36007KT 10SM OVC044 17/12 A3036 RMK AO2
KSYM 211755Z AUTO 35007KT 10SM BKN039 OVC045 17/12 A3037 RMK AO2
KSYM 211735Z AUTO 36005KT 10SM BKN037 OVC044 16/12 A3037 RMK AO2
KSYM 211715Z AUTO VRB04KT 10SM OVC035 15/12 A3038 RMK AO2
KSYM 211655Z AUTO 01005G13KT 5SM -RA OVC035 15/12 A3037 RMK AO2
KSYM 211635Z AUTO 35010G16KT 310V010 7SM -RA OVC035 15/12 A3036 RMK AO2
KSYM 211615Z AUTO 34012G17KT 300V360 9SM SCT030 BKN034 OVC041 15/12 A3036 RMK AO2
KSYM 211555Z AUTO 33010G20KT 10SM FEW012 OVC029 15/12 A3036 RMK AO2
KSYM 211535Z AUTO 36010KT 10SM -RA SCT025 BKN033 OVC040 15/12 A3033 RMK AO2
KSYM 211515Z AUTO 36010G17KT 10SM SCT022 BKN028 OVC040 16/12 A3031 RMK AO2
KSYM 211455Z AUTO 34008G20KT 290V020 10SM FEW017 SCT023 OVC031 17/13 A3030 RMK AO2
KSYM 211435Z AUTO 21012G23KT 10SM OVC031 22/15 A3028 RMK AO2
KSYM 211415Z AUTO 21010G15KT 10SM OVC031 21/15 A3027 RMK AO2
KSYM 211355Z AUTO 20010KT 10SM OVC032 21/15 A3027 RMK AO2
KSYM 211335Z AUTO 19009KT 10SM OVC033 21/14 A3026 RMK AO2
KSYM 211315Z AUTO 20011G18KT 10SM OVC033 20/14 A3026 RMK AO2
KSYM 211255Z AUTO 20012KT 10SM OVC034 20/14 A3026 RMK AO2
KSYM 211235Z AUTO 20012G17KT 10SM OVC035 20/14 A3025 RMK AO2
KSYM 210755Z AUTO 19013G19KT 10SM CLR 21/13 A3021 RMK AO2
KSYM 210735Z AUTO 19012G19KT 10SM CLR 21/13 A3021 RMK AO2
KSYM 210715Z AUTO 19007G14KT 170V230 10SM CLR 20/13 A3022 RMK AO2
KSYM 210655Z AUTO 19012KT 10SM SCT080 20/12 A3022 RMK AO2
KSYM 210635Z AUTO 19010KT 10SM OVC080 21/12 A3022 RMK AO2
KSYM 210615Z AUTO 18007KT 10SM OVC080 20/12 A3022 RMK AO2
KSYM 210555Z AUTO 19008KT 10SM BKN075 20/12 A3023 RMK AO2